createdAt,value
2022-10-31T00:00:32.356Z,12.77
2022-10-31T00:02:59.079Z,7.50
2022-10-31T00:05:25.725Z,8.55
2022-10-31T00:07:55.332Z,7.40
2022-10-31T00:10:21.804Z,7.47
2022-10-31T00:12:48.297Z,4.88
2022-10-31T00:15:14.792Z,6.93
2022-10-31T00:17:41.212Z,7.55
2022-10-31T00:20:08.136Z,7.72
2022-10-31T00:22:34.538Z,5.15
2022-10-31T00:25:01.003Z,7.57
2022-10-31T00:27:27.442Z,5.93
2022-10-31T00:29:53.823Z,8.32
2022-10-31T00:32:20.237Z,7.18
2022-10-31T00:34:46.674Z,8.45
2022-10-31T00:37:13.118Z,5.13
2022-10-31T00:39:39.531Z,7.90
2022-10-31T00:42:05.966Z,6.93
2022-10-31T00:44:32.380Z,6.53
2022-10-31T00:46:58.801Z,5.68
2022-10-31T00:49:25.238Z,4.82
2022-10-31T00:51:51.681Z,4.45
2022-10-31T00:54:18.163Z,6.32
2022-10-31T00:56:44.662Z,5.70
2022-10-31T00:59:11.078Z,4.90
2022-10-31T01:01:37.646Z,6.15
2022-10-31T01:04:04.340Z,4.95
2022-10-31T01:06:30.760Z,6.85
2022-10-31T01:08:57.179Z,6.55
2022-10-31T01:11:24.522Z,5.88
2022-10-31T01:13:53.061Z,7.60
2022-10-31T01:16:21.541Z,6.10
2022-10-31T01:18:48.014Z,8.20
2022-10-31T01:21:17.489Z,5.25
2022-10-31T01:23:44.516Z,4.50
2022-10-31T01:26:14.455Z,4.70
2022-10-31T01:28:54.969Z,5.45
2022-10-31T01:31:23.222Z,4.90
2022-10-31T01:33:49.631Z,6.13
2022-10-31T01:36:33.889Z,6.63
2022-10-31T01:39:03.342Z,5.53
2022-10-31T01:41:31.822Z,6.10
2022-10-31T01:43:59.661Z,5.63
2022-10-31T01:46:34.896Z,5.47
2022-10-31T01:49:03.721Z,7.70
2022-10-31T01:51:34.112Z,5.22
2022-10-31T01:54:03.228Z,5.43
2022-10-31T01:56:29.653Z,8.48
2022-10-31T01:58:57.491Z,6.88
2022-10-31T02:01:24.115Z,7.28
2022-10-31T02:03:50.674Z,6.93
2022-10-31T02:06:27.774Z,6.78
2022-10-31T02:08:54.607Z,5.47
2022-10-31T02:11:21.067Z,7.22
2022-10-31T02:13:48.249Z,5.88
2022-10-31T02:16:14.727Z,7.38
2022-10-31T02:18:41.243Z,9.30
2022-10-31T02:21:19.838Z,5.13
2022-10-31T02:24:11.591Z,7.85
2022-10-31T02:26:52.609Z,7.78
2022-10-31T02:29:51.605Z,4.38
2022-10-31T02:32:35.653Z,7.35
2022-10-31T02:35:13.315Z,7.32
2022-10-31T02:37:50.645Z,8.65
2022-10-31T02:40:20.810Z,6.80
2022-10-31T02:43:04.655Z,8.55
2022-10-31T02:45:53.996Z,5.03
2022-10-31T02:48:23.426Z,6.55
2022-10-31T02:51:01.532Z,5.78
2022-10-31T02:53:33.098Z,5.72
2022-10-31T02:56:02.683Z,6.45
2022-10-31T02:58:33.089Z,7.53
2022-10-31T03:01:18.443Z,5.05
2022-10-31T03:04:17.225Z,5.80
2022-10-31T03:07:02.159Z,5.03
2022-10-31T03:10:01.172Z,6.32
2022-10-31T03:12:31.152Z,4.63
2022-10-31T03:15:12.697Z,7.40
2022-10-31T03:17:46.172Z,7.88
2022-10-31T03:20:12.591Z,6.90
2022-10-31T03:22:40.749Z,7.30
2022-10-31T03:25:08.449Z,6.25
2022-10-31T03:27:36.479Z,4.85
2022-10-31T03:30:04.944Z,4.90
2022-10-31T03:32:42.932Z,7.75
2022-10-31T03:35:09.775Z,6.53
2022-10-31T03:37:37.601Z,5.47
2022-10-31T03:40:05.352Z,6.72
2022-10-31T03:42:34.380Z,7.10
2022-10-31T03:45:07.546Z,4.18
2022-10-31T03:47:35.400Z,5.05
2022-10-31T03:50:01.910Z,6.82
2022-10-31T03:52:49.991Z,5.95
2022-10-31T03:55:20.371Z,6.63
2022-10-31T03:58:04.138Z,6.13
2022-10-31T04:00:32.705Z,6.07
2022-10-31T04:03:07.561Z,6.25
2022-10-31T04:05:34.553Z,6.18
2022-10-31T04:08:02.119Z,6.40
2022-10-31T04:10:32.898Z,5.38
2022-10-31T04:13:06.720Z,8.10
2022-10-31T04:15:34.053Z,5.38
2022-10-31T04:18:01.983Z,5.60
2022-10-31T04:20:34.572Z,8.88
2022-10-31T04:23:02.102Z,7.45
2022-10-31T04:25:28.612Z,6.57
2022-10-31T04:27:55.334Z,7.47
2022-10-31T04:30:21.945Z,6.15
2022-10-31T04:32:48.402Z,8.48
2022-10-31T04:35:14.863Z,7.80
2022-10-31T04:37:41.276Z,5.88
2022-10-31T04:40:08.228Z,7.65
2022-10-31T04:42:34.658Z,9.05
2022-10-31T04:45:01.061Z,6.82
2022-10-31T04:47:27.477Z,8.45
2022-10-31T04:49:53.943Z,9.50
2022-10-31T04:52:20.361Z,7.80
2022-10-31T04:54:46.749Z,8.13
2022-10-31T04:57:13.154Z,10.60
2022-10-31T04:59:39.568Z,9.45
2022-10-31T05:02:06.114Z,10.95
2022-10-31T05:04:32.634Z,9.27
2022-10-31T05:06:59.042Z,10.73
2022-10-31T05:09:25.463Z,7.65
2022-10-31T05:11:51.905Z,8.70
2022-10-31T05:14:18.329Z,13.98
2022-10-31T05:16:44.752Z,12.00
2022-10-31T05:19:11.182Z,12.43
2022-10-31T05:21:37.583Z,19.08
2022-10-31T05:24:04.353Z,18.48
2022-10-31T05:26:30.746Z,19.13
2022-10-31T05:28:57.176Z,16.95
2022-10-31T05:31:23.645Z,17.02
2022-10-31T05:33:50.073Z,17.40
2022-10-31T05:36:16.455Z,17.00
2022-10-31T05:38:42.883Z,16.70
2022-10-31T05:41:10.263Z,19.70
2022-10-31T05:43:36.734Z,19.30
2022-10-31T05:46:03.150Z,16.40
2022-10-31T05:48:29.611Z,15.88
2022-10-31T05:50:56.036Z,18.25
2022-10-31T05:53:22.433Z,18.73
2022-10-31T05:55:48.832Z,18.40
2022-10-31T05:58:15.358Z,17.08
2022-10-31T06:00:42.748Z,17.83
2022-10-31T06:05:41.398Z,23.05
2022-10-31T06:08:07.804Z,22.67
2022-10-31T06:10:34.438Z,22.67
2022-10-31T06:13:00.888Z,21.88
2022-10-31T06:15:27.339Z,22.17
2022-10-31T06:18:04.751Z,21.90
2022-10-31T06:20:31.714Z,22.63
2022-10-31T06:22:58.524Z,20.77
2022-10-31T06:25:25.183Z,19.42
2022-10-31T06:27:51.589Z,26.58
2022-10-31T06:30:18.167Z,22.80
2022-10-31T06:32:44.599Z,27.20
2022-10-31T06:35:11.187Z,24.45
2022-10-31T06:37:38.307Z,25.88
2022-10-31T06:40:05.172Z,25.85
2022-10-31T06:42:31.584Z,32.58
2022-10-31T06:44:57.992Z,28.80
2022-10-31T06:47:24.618Z,31.67
2022-10-31T06:49:54.645Z,37.88
2022-10-31T06:52:21.079Z,38.90
2022-10-31T06:54:47.578Z,42.53
2022-10-31T06:57:13.995Z,44.70
2022-10-31T06:59:40.430Z,37.88
2022-10-31T07:02:10.076Z,39.75
2022-10-31T07:04:36.606Z,48.03
2022-10-31T07:07:03.191Z,49.78
2022-10-31T07:09:29.616Z,49.55
2022-10-31T07:11:56.024Z,62.45
2022-10-31T07:14:22.465Z,50.38
2022-10-31T07:16:50.909Z,48.75
2022-10-31T07:19:17.933Z,49.33
2022-10-31T07:21:44.370Z,54.17
2022-10-31T07:24:11.790Z,51.70
2022-10-31T07:26:38.243Z,50.28
2022-10-31T07:29:04.734Z,55.45
2022-10-31T07:31:31.124Z,49.85
2022-10-31T07:33:57.567Z,50.53
2022-10-31T07:36:23.961Z,51.38
2022-10-31T07:38:50.879Z,55.97
2022-10-31T07:41:17.276Z,53.95
2022-10-31T07:43:43.723Z,54.75
2022-10-31T07:46:10.260Z,48.88
2022-10-31T07:48:36.703Z,49.25
2022-10-31T07:51:03.180Z,53.60
2022-10-31T07:53:29.607Z,54.55
2022-10-31T07:55:56.033Z,53.17
2022-10-31T07:58:22.497Z,52.88
2022-10-31T08:00:49.191Z,50.05
2022-10-31T08:03:17.811Z,51.10
2022-10-31T08:05:46.726Z,54.80
2022-10-31T08:08:14.327Z,54.47
2022-10-31T08:10:41.569Z,56.60
2022-10-31T08:13:10.557Z,52.95
2022-10-31T08:15:39.174Z,50.17
2022-10-31T08:18:06.714Z,52.65
2022-10-31T08:20:33.234Z,49.50
2022-10-31T08:23:01.704Z,60.08
2022-10-31T08:25:32.417Z,51.47
2022-10-31T08:28:02.637Z,57.53
2022-10-31T08:30:31.595Z,55.08
2022-10-31T08:33:13.902Z,57.10
2022-10-31T08:35:40.938Z,49.90
2022-10-31T08:38:08.675Z,57.20
2022-10-31T08:40:36.164Z,61.47
2022-10-31T08:43:04.824Z,54.95
2022-10-31T08:45:32.505Z,49.45
2022-10-31T08:48:04.207Z,56.47
2022-10-31T08:50:32.125Z,50.78
2022-10-31T08:53:12.641Z,47.47
2022-10-31T08:55:40.034Z,51.67
2022-10-31T08:58:10.691Z,51.60
2022-10-31T09:00:37.643Z,58.67
2022-10-31T09:03:06.504Z,52.17
2022-10-31T09:05:33.709Z,52.35
2022-10-31T09:08:02.442Z,53.90
2022-10-31T09:10:29.992Z,46.90
2022-10-31T09:13:09.039Z,58.95
2022-10-31T09:15:37.015Z,51.83
2022-10-31T09:18:04.004Z,48.47
2022-10-31T09:20:32.053Z,49.60
2022-10-31T09:22:59.950Z,43.42
2022-10-31T09:25:27.194Z,47.53
2022-10-31T09:28:00.517Z,45.05
2022-10-31T09:30:30.205Z,48.00
2022-10-31T09:33:01.758Z,50.03
2022-10-31T09:35:29.025Z,49.53
2022-10-31T09:37:56.428Z,43.60
2022-10-31T09:40:24.335Z,44.35
2022-10-31T09:43:15.684Z,48.00
2022-10-31T09:45:49.082Z,49.33
2022-10-31T09:48:33.909Z,48.72
2022-10-31T09:51:13.235Z,49.40
2022-10-31T09:53:43.701Z,44.13
2022-10-31T09:56:13.965Z,45.55
2022-10-31T09:58:46.304Z,47.78
2022-10-31T10:01:34.534Z,51.97
2022-10-31T10:04:40.346Z,52.33
2022-10-31T10:07:31.541Z,48.58
2022-10-31T10:09:59.175Z,52.80
2022-10-31T10:12:40.993Z,46.63
2022-10-31T10:15:22.101Z,51.45
2022-10-31T10:17:55.980Z,45.13
2022-10-31T10:20:35.390Z,42.78
2022-10-31T10:23:27.873Z,44.60
2022-10-31T10:26:08.750Z,46.22
2022-10-31T10:28:40.903Z,50.30
2022-10-31T10:31:18.412Z,45.83
2022-10-31T10:34:12.619Z,46.85
2022-10-31T10:36:46.152Z,54.55
2022-10-31T10:39:24.169Z,48.65
2022-10-31T10:42:10.728Z,56.83
2022-10-31T10:45:03.637Z,48.53
2022-10-31T10:47:44.199Z,44.88
2022-10-31T10:50:16.520Z,46.53
2022-10-31T10:53:00.656Z,53.67
2022-10-31T10:55:40.589Z,51.53
2022-10-31T10:58:09.083Z,50.88
2022-10-31T11:00:39.300Z,49.38
2022-10-31T11:03:06.608Z,43.03
2022-10-31T11:05:46.035Z,43.80
2022-10-31T11:08:13.050Z,42.30
2022-10-31T11:10:39.668Z,43.15
2022-10-31T11:13:06.128Z,47.22
2022-10-31T11:15:38.077Z,46.58
2022-10-31T11:18:05.331Z,49.55
2022-10-31T11:20:37.157Z,51.70
2022-10-31T11:23:24.420Z,47.55
2022-10-31T11:26:00.850Z,44.55
2022-10-31T11:28:30.300Z,43.10
2022-10-31T11:31:00.237Z,40.10
2022-10-31T11:33:46.260Z,40.75
2022-10-31T11:36:33.506Z,42.65
2022-10-31T11:39:01.082Z,42.20
2022-10-31T11:41:40.653Z,45.90
2022-10-31T11:44:17.516Z,49.53
2022-10-31T11:46:46.863Z,47.40
2022-10-31T11:49:43.037Z,41.17
2022-10-31T11:52:15.417Z,44.30
2022-10-31T11:54:55.912Z,44.97
2022-10-31T11:57:30.698Z,47.38
2022-10-31T11:59:59.691Z,44.28
2022-10-31T12:02:27.299Z,44.10
2022-10-31T12:05:02.436Z,40.80
2022-10-31T12:07:29.021Z,39.05
2022-10-31T12:09:55.553Z,43.00
2022-10-31T12:12:24.982Z,38.10
2022-10-31T12:14:57.210Z,38.28
2022-10-31T12:17:42.583Z,38.28
2022-10-31T12:20:30.296Z,38.38
2022-10-31T12:23:05.913Z,40.17
2022-10-31T12:25:42.969Z,40.72
2022-10-31T12:28:32.657Z,47.03
2022-10-31T12:31:08.194Z,44.53
2022-10-31T12:33:42.313Z,41.17
2022-10-31T12:36:17.904Z,42.78
2022-10-31T12:38:50.285Z,43.40
2022-10-31T12:41:22.744Z,41.83
2022-10-31T12:44:01.655Z,48.75
2022-10-31T12:46:54.656Z,43.97
2022-10-31T12:49:29.005Z,38.80
2022-10-31T12:52:10.495Z,39.08
2022-10-31T12:54:49.190Z,36.13
2022-10-31T12:57:18.809Z,35.92
2022-10-31T13:00:06.025Z,36.70
2022-10-31T13:02:47.293Z,45.53
2022-10-31T13:05:32.509Z,41.05
2022-10-31T13:08:04.024Z,39.53
2022-10-31T13:10:34.051Z,38.00
2022-10-31T13:13:07.971Z,42.25
2022-10-31T13:15:40.031Z,43.03
2022-10-31T13:18:12.866Z,41.55
2022-10-31T13:20:43.334Z,43.05
2022-10-31T13:26:41.998Z,43.63
2022-10-31T13:29:31.789Z,42.80
2022-10-31T13:32:00.678Z,41.65
2022-10-31T13:34:28.509Z,40.85
2022-10-31T13:37:16.418Z,42.60
2022-10-31T13:40:21.198Z,43.28
2022-10-31T13:43:08.160Z,42.13
2022-10-31T13:45:34.604Z,44.85
2022-10-31T13:48:16.416Z,45.53
2022-10-31T13:50:44.293Z,43.83
2022-10-31T13:53:20.265Z,48.97
2022-10-31T13:55:49.456Z,46.72
2022-10-31T13:58:25.293Z,52.85
2022-10-31T14:01:16.563Z,44.75
2022-10-31T14:06:37.888Z,44.33
2022-10-31T14:09:04.836Z,45.03
2022-10-31T14:11:34.592Z,42.63
2022-10-31T14:14:03.941Z,43.65
2022-10-31T14:16:31.832Z,49.72
2022-10-31T14:19:07.568Z,48.45
2022-10-31T14:21:42.935Z,50.72
2022-10-31T14:24:26.125Z,47.25
2022-10-31T14:27:03.914Z,43.97
2022-10-31T14:29:34.958Z,46.60
2022-10-31T14:32:11.745Z,45.85
2022-10-31T14:34:41.876Z,47.83
2022-10-31T14:37:39.623Z,41.63
2022-10-31T14:40:14.999Z,44.33
2022-10-31T14:42:46.448Z,41.63
2022-10-31T14:45:40.368Z,45.15
2022-10-31T14:48:31.722Z,48.75
2022-10-31T14:50:59.501Z,45.33
2022-10-31T14:53:28.601Z,52.60
2022-10-31T14:55:56.781Z,45.17
2022-10-31T14:58:43.713Z,47.75
2022-10-31T15:01:22.327Z,45.80
2022-10-31T15:04:17.610Z,41.50
2022-10-31T15:06:43.388Z,40.97
2022-10-31T15:09:27.439Z,39.50
2022-10-31T15:11:53.893Z,41.85
2022-10-31T15:14:32.817Z,41.90
2022-10-31T15:17:00.329Z,40.15
2022-10-31T15:19:28.788Z,47.30
2022-10-31T15:21:56.834Z,45.00
2022-10-31T15:24:25.896Z,39.20
2022-10-31T15:26:53.727Z,39.60
2022-10-31T15:29:24.735Z,38.75
2022-10-31T15:31:52.030Z,42.85
2022-10-31T15:34:25.870Z,38.17
2022-10-31T15:36:52.371Z,40.88
2022-10-31T15:39:19.474Z,43.25
2022-10-31T15:41:57.337Z,41.80
2022-10-31T15:44:34.104Z,43.15
2022-10-31T15:47:06.200Z,43.38
2022-10-31T15:49:39.567Z,39.40
2022-10-31T15:52:21.648Z,42.38
2022-10-31T15:54:51.407Z,44.67
2022-10-31T15:57:18.061Z,47.05
2022-10-31T15:59:47.632Z,42.85
2022-10-31T16:02:15.845Z,49.97
2022-10-31T16:04:54.185Z,47.72
2022-10-31T16:07:23.562Z,46.88
2022-10-31T16:10:00.945Z,45.05
2022-10-31T16:12:34.817Z,53.65
2022-10-31T16:15:01.606Z,50.83
2022-10-31T16:17:28.879Z,70.95
2022-10-31T16:19:58.570Z,48.78
2022-10-31T16:22:30.164Z,45.63
2022-10-31T16:25:01.107Z,45.30
2022-10-31T16:27:30.133Z,47.00
2022-10-31T16:29:58.115Z,48.78
2022-10-31T16:32:53.062Z,45.28
2022-10-31T16:35:34.817Z,45.38
2022-10-31T16:38:01.260Z,49.55
2022-10-31T16:40:27.716Z,45.85
2022-10-31T16:42:54.293Z,46.53
2022-10-31T16:45:22.990Z,48.05
2022-10-31T16:47:50.353Z,45.72
2022-10-31T16:50:20.961Z,43.53
2022-10-31T16:55:37.220Z,49.10
2022-10-31T16:58:04.094Z,51.00
2022-10-31T17:00:31.602Z,44.85
2022-10-31T17:02:58.014Z,47.72
2022-10-31T17:05:30.167Z,54.00
2022-10-31T17:07:57.844Z,49.55
2022-10-31T17:10:25.039Z,45.30
2022-10-31T17:12:52.190Z,50.75
2022-10-31T17:15:23.394Z,49.63
2022-10-31T17:17:49.859Z,50.65
2022-10-31T17:20:20.209Z,44.28
2022-10-31T17:22:46.647Z,43.65
2022-10-31T17:25:18.329Z,43.40
2022-10-31T17:27:47.346Z,46.88
2022-10-31T17:30:14.385Z,47.90
2022-10-31T17:32:41.819Z,45.20
2022-10-31T17:35:10.485Z,46.35
2022-10-31T17:37:37.085Z,49.83
2022-10-31T17:40:03.700Z,47.33
2022-10-31T17:42:30.097Z,47.00
2022-10-31T17:44:56.499Z,45.10
2022-10-31T17:47:23.216Z,47.08
2022-10-31T17:49:49.620Z,45.47
2022-10-31T17:52:16.050Z,44.58
2022-10-31T17:54:42.458Z,45.28
2022-10-31T17:57:08.896Z,43.85
2022-10-31T17:59:35.323Z,43.97
2022-10-31T18:02:02.971Z,44.95
2022-10-31T18:04:29.602Z,42.72
2022-10-31T18:06:56.057Z,42.70
2022-10-31T18:09:22.490Z,41.90
2022-10-31T18:11:48.900Z,39.25
2022-10-31T18:14:15.291Z,45.15
2022-10-31T18:16:41.710Z,38.80
2022-10-31T18:19:08.201Z,40.65
2022-10-31T18:21:34.625Z,37.95
2022-10-31T18:24:02.899Z,38.88
2022-10-31T18:26:29.315Z,40.22
2022-10-31T18:28:55.738Z,39.95
2022-10-31T18:31:22.181Z,38.30
2022-10-31T18:33:48.664Z,44.95
2022-10-31T18:36:15.099Z,40.33
2022-10-31T18:38:44.783Z,42.65
2022-10-31T18:41:12.305Z,42.72
2022-10-31T18:43:38.689Z,40.38
2022-10-31T18:46:10.382Z,37.38
2022-10-31T18:48:37.515Z,44.47
2022-10-31T18:53:36.626Z,42.90
2022-10-31T18:56:10.402Z,47.65
2022-10-31T18:58:38.186Z,43.13
2022-10-31T19:01:09.669Z,46.53
2022-10-31T19:03:36.442Z,44.47
2022-10-31T19:06:03.149Z,41.80
2022-10-31T19:08:29.972Z,42.92
2022-10-31T19:10:56.537Z,44.60
2022-10-31T19:13:22.940Z,42.13
2022-10-31T19:15:49.343Z,43.53
2022-10-31T19:18:15.756Z,41.85
2022-10-31T19:20:42.163Z,42.83
2022-10-31T19:23:08.610Z,46.20
2022-10-31T19:25:35.136Z,42.00
2022-10-31T19:28:01.922Z,36.97
2022-10-31T19:30:28.627Z,35.05
2022-10-31T19:32:55.888Z,40.03
2022-10-31T19:35:22.292Z,38.92
2022-10-31T19:37:48.716Z,36.65
2022-10-31T19:40:15.488Z,36.50
2022-10-31T19:42:41.905Z,40.10
2022-10-31T19:45:08.600Z,42.25
2022-10-31T19:47:35.000Z,36.75
2022-10-31T19:50:01.594Z,40.45
2022-10-31T19:52:28.040Z,37.30
2022-10-31T19:54:54.461Z,38.00
2022-10-31T19:57:35.811Z,39.03
2022-10-31T20:00:07.831Z,39.35
2022-10-31T20:02:34.331Z,36.13
2022-10-31T20:05:01.818Z,36.03
2022-10-31T20:07:28.230Z,36.17
2022-10-31T20:09:54.721Z,33.85
2022-10-31T20:12:21.471Z,39.45
2022-10-31T20:14:49.470Z,36.38
2022-10-31T20:17:15.926Z,35.75
2022-10-31T20:19:42.397Z,33.10
2022-10-31T20:22:08.834Z,34.30
2022-10-31T20:24:35.808Z,32.10
2022-10-31T20:27:03.222Z,34.22
2022-10-31T20:29:29.657Z,35.90
2022-10-31T20:31:57.108Z,32.80
2022-10-31T20:34:23.501Z,34.72
2022-10-31T20:36:49.931Z,33.33
2022-10-31T20:39:16.358Z,32.15
2022-10-31T20:41:42.780Z,31.80
2022-10-31T20:44:09.285Z,32.95
2022-10-31T20:46:35.689Z,33.45
2022-10-31T20:49:02.158Z,33.60
2022-10-31T20:51:28.896Z,37.10
2022-10-31T20:53:56.613Z,36.42
2022-10-31T20:56:25.039Z,35.40
2022-10-31T20:58:51.524Z,33.38
2022-10-31T21:01:20.487Z,32.35
2022-10-31T21:03:47.641Z,33.05
2022-10-31T21:06:14.920Z,34.30
2022-10-31T21:08:42.718Z,32.65
2022-10-31T21:11:16.076Z,33.03
2022-10-31T21:13:43.828Z,35.55
2022-10-31T21:16:12.979Z,36.20
2022-10-31T21:18:40.776Z,33.22
2022-10-31T21:21:12.289Z,31.33
2022-10-31T21:23:38.921Z,32.65
2022-10-31T21:26:20.963Z,30.55
2022-10-31T21:28:48.425Z,33.13
2022-10-31T21:31:17.047Z,34.50
2022-10-31T21:33:44.281Z,34.08
2022-10-31T21:36:10.887Z,33.63
2022-10-31T21:38:37.600Z,31.38
2022-10-31T21:41:12.013Z,33.28
2022-10-31T21:43:40.085Z,33.17
2022-10-31T21:46:17.404Z,30.92
2022-10-31T21:48:44.567Z,32.58
2022-10-31T21:51:12.606Z,32.78
2022-10-31T21:53:58.171Z,35.00
2022-10-31T21:56:25.038Z,31.17
2022-10-31T21:58:52.254Z,29.13
2022-10-31T22:01:19.100Z,35.75
2022-10-31T22:03:45.612Z,33.40
2022-10-31T22:06:12.754Z,30.45
2022-10-31T22:08:40.583Z,33.83
2022-10-31T22:11:09.573Z,33.05
2022-10-31T22:13:36.890Z,31.90
2022-10-31T22:16:04.865Z,30.80
2022-10-31T22:18:31.508Z,34.08
2022-10-31T22:21:06.044Z,32.05
2022-10-31T22:23:32.956Z,32.25
2022-10-31T22:26:07.178Z,31.67
2022-10-31T22:28:34.147Z,33.05
2022-10-31T22:31:07.799Z,32.15
2022-10-31T22:33:34.580Z,31.20
2022-10-31T22:36:05.608Z,30.80
2022-10-31T22:38:39.774Z,26.83
2022-10-31T22:41:17.332Z,31.13
2022-10-31T22:43:43.815Z,28.65
2022-10-31T22:46:24.396Z,29.25
2022-10-31T22:48:53.140Z,27.10
2022-10-31T22:51:30.829Z,28.13
2022-10-31T22:53:57.429Z,30.98
2022-10-31T22:56:26.184Z,31.38
2022-10-31T22:58:52.807Z,30.67
2022-10-31T23:01:21.742Z,32.15
2022-10-31T23:03:48.503Z,29.58
2022-10-31T23:06:17.126Z,28.77
2022-10-31T23:08:43.765Z,27.20
2022-10-31T23:11:32.350Z,31.92
2022-10-31T23:14:15.685Z,26.88
2022-10-31T23:16:47.018Z,30.27
2022-10-31T23:19:18.108Z,28.58
2022-10-31T23:21:57.014Z,27.98
2022-10-31T23:24:39.313Z,28.55
2022-10-31T23:27:14.354Z,29.60
2022-10-31T23:29:47.680Z,28.02
2022-10-31T23:32:22.788Z,29.92
2022-10-31T23:34:50.502Z,28.80
2022-10-31T23:37:18.149Z,27.92
2022-10-31T23:39:44.760Z,29.42
2022-10-31T23:42:11.295Z,30.48
2022-10-31T23:44:37.831Z,31.90
2022-10-31T23:47:04.962Z,30.83
2022-10-31T23:49:31.522Z,29.30
2022-10-31T23:51:58.051Z,32.58
2022-10-31T23:54:25.414Z,30.60
2022-10-31T23:56:52.313Z,27.50
2022-10-31T23:59:18.828Z,31.63
